Aérodrome :
LOGIN :

S'inscrire | Disclaimer

   EN    FR    IT 

 










Légende :    VFR   VFR Marginal   IFR   IFR Intensif   IFR Très Intensif
Visi : 
Plafond : 
>= 8 km
>= 3000ft
5 à 8 km
1000 à 3000 ft
1500m à 5 km
500 à 1000 ft
800 à 1500m
200 à 500 ft
< 800m
< 200 ft
Symboles :   Orages  Brouillard  Fortes neiges  Fortes précipitations  Vent > 20 kt
SIGMETs :   Divers  Orages  Givrage  Turbulence  Onde Orograph.  Cendres Volcan.






- Altitude de l'aérodrome : 256 ft
- Code IATA : CFR


LFRK - Caen

DERNIER METAR :
  • 260730Z AUTO 20005KT 7000 BKN016 BKN062 06/06 Q1014 TEMPO 4000 RADZ BKN009

METARs EXPIRÉS :
  • 260700Z AUTO 15007KT 4500 BR SCT012 OVC060 06/05 Q1014 TEMPO RADZ BKN009
  • 260630Z AUTO 14006KT 3600 BR FEW011 OVC062 05/05 Q1014 TEMPO RADZ BKN009
  • 260600Z AUTO 16005KT 5000 BR OVC009 06/06 Q1014 TEMPO DZ
  • 260530Z AUTO 15007KT 5000 BR FEW003 BKN009 OVC058 06/06 Q1014 TEMPO DZ
  • 260500Z AUTO 14007KT 5000 BR FEW004 BKN056 05/05 Q1014

TAF TAF LFRK
Valide du 26 à 06h jusqu'au 26 à 15h UTC


260500Z 2606/2615 18010KT 6000 BKN015
TEMPO 2606/2608 3000 DZ BR BKN005
PROB40
TEMPO 2608/2615 4000 RADZ BKN009
BECMG 2611/2613 20015G25KT
Météo : +33 2 31 26 68 11



MET'MAP, la Météo Aéronautique d'un coup d'oeil ! - Copyright ORBIFLY Décembre 2007 - Disclaimer

ORBIFLY MET'MAP TEAM :

Programmation & Développement : Alexandra Zaïnal
Sur une idée originale de : Baudouin d'Aumeries
Assistance à la programmation : Marc-Olivier Méhu
Soutien technique & logistique : Manuel Goepfert

Contact : metmap@orbifly.com




SOURCES & CREDITS :

   NOAA